createdAt,value
2023-05-04T03:54:29.776Z,100.00
2023-05-04T03:57:32.254Z,100.00
2023-05-04T04:00:35.148Z,100.00
2023-05-04T04:03:39.009Z,100.00
2023-05-04T04:06:43.313Z,100.00
2023-05-04T04:09:47.417Z,100.00
2023-05-04T04:12:50.213Z,100.00
2023-05-04T04:15:52.774Z,100.00
2023-05-04T04:18:55.417Z,100.00
2023-05-04T04:21:59.971Z,100.00
2023-05-04T04:25:04.112Z,100.00
2023-05-04T04:28:06.632Z,100.00
2023-05-04T04:31:09.456Z,100.00
2023-05-04T04:34:11.983Z,100.00
2023-05-04T04:37:14.557Z,100.00
2023-05-04T04:40:18.883Z,100.00
2023-05-04T04:43:21.459Z,100.00
2023-05-04T04:46:23.972Z,96.70
2023-05-04T04:49:27.455Z,93.51
2023-05-04T04:52:29.961Z,95.57
2023-05-04T04:55:34.620Z,97.74
2023-05-04T04:58:37.276Z,94.44
2023-05-04T05:01:39.776Z,94.55
2023-05-04T05:04:42.363Z,89.75
2023-05-04T05:07:44.915Z,85.17
2023-05-04T05:10:48.757Z,83.51
2023-05-04T05:13:51.546Z,81.02
2023-05-04T05:16:54.554Z,80.18
2023-05-04T05:19:57.110Z,81.19
2023-05-04T05:22:59.747Z,82.34
2023-05-04T05:26:03.696Z,82.81
2023-05-04T05:29:06.228Z,82.69
2023-05-04T05:32:08.729Z,83.84
2023-05-04T05:35:12.489Z,85.52
2023-05-04T05:38:16.218Z,88.90
2023-05-04T05:41:20.210Z,94.54
2023-05-04T05:44:22.708Z,96.11
2023-05-04T05:47:25.310Z,99.14
2023-05-04T05:50:27.803Z,99.23
2023-05-04T05:53:30.420Z,100.00
2023-05-04T05:56:34.272Z,92.32
2023-05-04T05:59:36.807Z,89.65
2023-05-04T06:02:39.368Z,91.40
2023-05-04T06:05:41.956Z,88.00
2023-05-04T06:08:44.953Z,87.34
2023-05-04T06:11:48.799Z,86.67
2023-05-04T06:14:51.553Z,78.90
2023-05-04T06:17:54.111Z,81.91
2023-05-04T06:20:59.742Z,81.68
2023-05-04T06:24:02.597Z,74.07
2023-05-04T06:27:06.808Z,72.12
2023-05-04T06:30:10.579Z,72.99
2023-05-04T06:33:13.414Z,71.89
2023-05-04T06:36:16.307Z,67.54
2023-05-04T06:39:19.256Z,66.55
2023-05-04T06:42:23.121Z,68.96
2023-05-04T06:45:25.625Z,66.06
2023-05-04T06:48:28.144Z,65.06
2023-05-04T06:51:30.724Z,65.97
2023-05-04T06:54:33.264Z,64.37
2023-05-04T06:57:37.107Z,63.65
2023-05-04T07:00:40.132Z,65.86
2023-05-04T07:03:42.761Z,63.48
2023-05-04T07:06:45.263Z,63.23
2023-05-04T07:09:48.268Z,65.11
2023-05-04T07:12:52.134Z,62.26
2023-05-04T07:15:54.798Z,57.27
2023-05-04T07:18:57.531Z,60.65
2023-05-04T07:22:00.815Z,59.64
2023-05-04T07:25:03.466Z,61.37
2023-05-04T07:28:07.392Z,57.34
2023-05-04T07:31:10.079Z,59.25
2023-05-04T07:34:12.579Z,56.54
2023-05-04T07:37:15.906Z,53.84
2023-05-04T07:40:18.692Z,55.26
2023-05-04T07:43:22.857Z,57.64
2023-05-04T07:46:25.391Z,54.80
2023-05-04T07:49:28.226Z,55.02
2023-05-04T07:52:30.852Z,56.68
2023-05-04T07:55:33.373Z,55.46
2023-05-04T07:58:37.203Z,54.98
2023-05-04T08:01:41.365Z,51.99
2023-05-04T08:04:45.783Z,53.44
2023-05-04T08:07:48.280Z,56.02
2023-05-04T08:10:50.867Z,55.86
2023-05-04T08:13:54.691Z,58.56
2023-05-04T08:16:57.262Z,57.12
2023-05-04T08:19:59.749Z,55.85
2023-05-04T08:23:02.741Z,54.84
2023-05-04T08:26:06.078Z,53.17
2023-05-04T08:29:10.916Z,52.98
2023-05-04T08:32:13.629Z,55.87
2023-05-04T08:35:16.373Z,53.19
2023-05-04T08:38:18.878Z,53.82
2023-05-04T08:41:22.053Z,54.56
2023-05-04T08:44:26.035Z,51.40
2023-05-04T08:47:29.798Z,51.86
2023-05-04T08:50:34.305Z,52.86
2023-05-04T08:53:38.891Z,54.28
2023-05-04T08:56:42.795Z,53.33
2023-05-04T08:59:50.520Z,51.08
2023-05-04T09:02:53.977Z,48.63
2023-05-04T09:05:57.814Z,52.90
2023-05-04T09:09:00.450Z,48.48
2023-05-04T09:12:02.982Z,56.27
2023-05-04T09:15:17.410Z,50.42
2023-05-04T09:18:20.299Z,49.42
2023-05-04T09:21:29.827Z,50.81
2023-05-04T09:24:32.963Z,49.04
2023-05-04T09:27:35.619Z,48.64
2023-05-04T09:30:39.517Z,44.83
2023-05-04T09:33:42.850Z,47.62
2023-05-04T09:36:45.439Z,46.59
2023-05-04T09:39:55.555Z,45.15
2023-05-04T09:42:58.535Z,47.64
2023-05-04T09:46:03.245Z,47.20
2023-05-04T09:49:05.964Z,48.33
2023-05-04T09:52:08.516Z,53.55
2023-05-04T09:55:14.469Z,47.58
2023-05-04T09:58:18.477Z,49.26
2023-05-04T10:01:23.119Z,48.43
2023-05-04T10:04:26.610Z,45.27
2023-05-04T10:07:31.863Z,41.83
2023-05-04T10:10:35.902Z,46.10
2023-05-04T10:13:39.142Z,45.45
2023-05-04T10:16:51.607Z,45.71
2023-05-04T10:20:08.251Z,49.09
2023-05-04T10:23:39.373Z,45.59
2023-05-04T10:27:03.250Z,47.58
2023-05-04T10:30:07.641Z,50.16
2023-05-04T10:33:13.260Z,52.05
2023-05-04T10:36:15.933Z,47.01
2023-05-04T10:39:20.412Z,49.21
2023-05-04T10:42:23.287Z,48.08
2023-05-04T10:45:35.611Z,46.35
2023-05-04T10:48:39.475Z,49.92
2023-05-04T10:51:48.992Z,46.08
2023-05-04T10:55:00.050Z,48.26
2023-05-04T10:58:02.880Z,44.70
2023-05-04T11:01:12.751Z,47.46
2023-05-04T11:04:25.466Z,44.22
2023-05-04T11:07:38.637Z,42.61
2023-05-04T11:10:41.833Z,47.91
2023-05-04T11:13:47.191Z,42.61
2023-05-04T11:16:49.817Z,43.56
2023-05-04T11:19:53.839Z,46.21
2023-05-04T11:22:56.510Z,46.35
2023-05-04T11:25:59.121Z,44.12
2023-05-04T11:29:01.749Z,42.20
2023-05-04T11:32:04.351Z,45.02
2023-05-04T11:35:11.528Z,43.98
2023-05-04T11:38:20.118Z,44.21
2023-05-04T11:41:27.096Z,45.26
2023-05-04T11:44:30.172Z,45.60
2023-05-04T11:47:32.746Z,43.96
2023-05-04T11:50:37.007Z,41.96
2023-05-04T11:53:40.670Z,40.52
2023-05-04T11:56:43.488Z,42.03
2023-05-04T11:59:49.493Z,47.09
2023-05-04T12:02:56.715Z,43.01
2023-05-04T12:06:01.948Z,39.32
2023-05-04T12:09:06.170Z,39.75
2023-05-04T12:12:08.834Z,38.66
2023-05-04T12:15:11.838Z,37.30
2023-05-04T12:18:29.455Z,38.49
2023-05-04T12:21:34.326Z,37.41
2023-05-04T12:24:36.968Z,37.63
2023-05-04T12:27:42.572Z,36.87
2023-05-04T12:30:45.119Z,35.42
2023-05-04T12:33:47.605Z,35.47
2023-05-04T12:36:52.292Z,37.22
2023-05-04T12:39:54.798Z,39.17
2023-05-04T12:42:57.298Z,40.40
2023-05-04T12:46:00.279Z,40.57
2023-05-04T12:49:03.025Z,40.61
2023-05-04T12:52:06.917Z,41.65
2023-05-04T12:55:09.844Z,39.37
2023-05-04T12:58:12.813Z,40.77
2023-05-04T13:01:15.511Z,37.34
2023-05-04T13:04:18.137Z,38.82
2023-05-04T13:07:21.958Z,38.51
2023-05-04T13:10:25.062Z,38.73
2023-05-04T13:13:29.368Z,41.09
2023-05-04T13:16:32.032Z,40.11
2023-05-04T13:19:34.597Z,39.00
2023-05-04T13:22:38.529Z,37.16
2023-05-04T13:25:41.085Z,37.78
2023-05-04T13:28:43.602Z,39.09
2023-05-04T13:31:46.128Z,36.98
2023-05-04T13:34:48.796Z,35.98
2023-05-04T13:37:52.652Z,37.78
2023-05-04T13:40:55.220Z,37.59
2023-05-04T13:43:57.719Z,38.69
2023-05-04T13:47:00.356Z,36.97
2023-05-04T13:50:02.976Z,42.23
2023-05-04T13:53:06.856Z,40.25
2023-05-04T13:56:09.541Z,37.88
2023-05-04T13:59:12.006Z,38.99
2023-05-04T14:02:14.520Z,38.21
2023-05-04T14:05:17.063Z,38.64
2023-05-04T14:08:20.885Z,38.12
2023-05-04T14:11:23.515Z,37.67
2023-05-04T14:14:26.113Z,39.48
2023-05-04T14:17:28.663Z,40.14
2023-05-04T14:20:31.217Z,41.62
2023-05-04T14:23:35.038Z,40.22
2023-05-04T14:26:37.960Z,41.43
2023-05-04T14:29:40.446Z,40.83
2023-05-04T14:32:42.982Z,39.61
2023-05-04T14:35:47.927Z,39.31
2023-05-04T14:38:52.130Z,41.37
2023-05-04T14:41:56.835Z,40.49
2023-05-04T14:44:59.690Z,41.44
2023-05-04T14:48:03.090Z,42.19
2023-05-04T14:51:05.802Z,41.02
2023-05-04T14:54:09.639Z,39.97
2023-05-04T14:57:12.624Z,40.76
2023-05-04T15:00:17.255Z,41.36
2023-05-04T15:03:19.865Z,41.81
2023-05-04T15:06:22.431Z,42.57
2023-05-04T15:09:26.412Z,43.39
2023-05-04T15:12:28.985Z,43.27
2023-05-04T15:15:31.532Z,43.16
2023-05-04T15:18:34.010Z,43.74
2023-05-04T15:21:36.533Z,43.49
2023-05-04T15:24:40.455Z,44.26
2023-05-04T15:27:44.403Z,44.23
2023-05-04T15:30:46.891Z,43.45
2023-05-04T15:33:49.655Z,44.90
2023-05-04T15:36:52.551Z,45.20
2023-05-04T15:39:57.861Z,46.24
2023-05-04T15:43:01.089Z,44.96
2023-05-04T15:46:03.560Z,44.54
2023-05-04T15:49:06.225Z,43.65
2023-05-04T15:52:10.442Z,44.57
2023-05-04T15:55:25.475Z,44.93
2023-05-04T15:58:28.987Z,44.25
2023-05-04T16:01:32.137Z,45.51
2023-05-04T16:04:34.695Z,45.71
2023-05-04T16:07:37.233Z,46.57
2023-05-04T16:10:41.049Z,45.06
2023-05-04T16:13:43.537Z,46.04
2023-05-04T16:16:46.080Z,46.14
2023-05-04T16:19:48.819Z,46.37
2023-05-04T16:22:51.316Z,44.84
2023-05-04T16:25:55.268Z,48.15
2023-05-04T16:28:57.800Z,48.00
2023-05-04T16:32:01.661Z,54.60
2023-05-04T16:35:04.190Z,62.14
2023-05-04T16:38:06.970Z,63.80
2023-05-04T16:41:11.002Z,66.76
2023-05-04T16:44:13.659Z,67.56
2023-05-04T16:47:16.258Z,68.05
2023-05-04T16:50:19.367Z,71.54
2023-05-04T16:53:21.971Z,68.97
2023-05-04T16:56:25.775Z,70.66
2023-05-04T16:59:29.264Z,72.11
2023-05-04T17:02:32.000Z,71.62
2023-05-04T17:05:35.003Z,72.56
2023-05-04T17:08:37.534Z,73.82
2023-05-04T17:11:41.397Z,73.49
2023-05-04T17:14:43.963Z,74.00
2023-05-04T17:17:46.773Z,75.40
2023-05-04T17:20:49.455Z,74.78
2023-05-04T17:23:51.954Z,74.50
2023-05-04T17:26:55.768Z,74.34
2023-05-04T17:29:58.277Z,74.07
2023-05-04T17:33:00.846Z,75.03
2023-05-04T17:36:03.973Z,76.85
2023-05-04T17:39:06.511Z,77.83
2023-05-04T17:42:10.748Z,79.49
2023-05-04T17:45:13.397Z,80.38
2023-05-04T17:48:16.423Z,80.34
2023-05-04T17:51:18.914Z,83.08
2023-05-04T17:54:21.390Z,86.46
2023-05-04T17:57:25.227Z,90.90
2023-05-04T18:00:27.971Z,93.78
2023-05-04T18:03:30.801Z,90.94
2023-05-04T18:06:33.606Z,92.65
2023-05-04T18:09:36.501Z,93.83
2023-05-04T18:12:40.901Z,95.50
2023-05-04T18:15:43.496Z,94.55
2023-05-04T18:18:46.011Z,95.06
2023-05-04T18:21:48.512Z,95.37
2023-05-04T18:24:50.996Z,97.71
2023-05-04T18:27:54.873Z,98.98
2023-05-04T18:30:57.407Z,97.54
2023-05-04T18:34:02.705Z,98.08
2023-05-04T18:37:05.210Z,98.71
2023-05-04T18:40:09.903Z,99.76
2023-05-04T18:43:13.976Z,100.00
2023-05-04T18:46:16.538Z,100.00
2023-05-04T18:49:19.062Z,100.00
2023-05-04T18:52:22.515Z,100.00
2023-05-04T18:55:25.239Z,100.00
2023-05-04T18:58:29.158Z,100.00
2023-05-04T19:01:31.691Z,100.00
2023-05-04T19:04:34.270Z,100.00
2023-05-04T19:07:37.014Z,100.00
2023-05-04T19:10:39.501Z,100.00
2023-05-04T19:13:43.551Z,100.00
2023-05-04T19:16:46.361Z,100.00
2023-05-04T19:19:48.932Z,100.00
2023-05-04T19:22:51.526Z,100.00
2023-05-04T19:25:54.083Z,100.00
2023-05-04T19:28:57.927Z,100.00
2023-05-04T19:32:05.545Z,100.00
2023-05-04T19:35:15.792Z,100.00
2023-05-04T19:38:18.282Z,100.00
2023-05-04T19:41:21.214Z,100.00
2023-05-04T19:44:25.051Z,100.00
2023-05-04T19:47:29.092Z,100.00
2023-05-04T19:50:32.081Z,100.00
2023-05-04T19:53:34.602Z,100.00
2023-05-04T19:56:37.104Z,100.00
2023-05-04T19:59:41.123Z,100.00
2023-05-04T20:02:43.840Z,100.00
2023-05-04T20:05:46.599Z,100.00
2023-05-04T20:08:49.203Z,100.00
2023-05-04T20:11:51.683Z,100.00
2023-05-04T20:14:55.517Z,100.00
2023-05-04T20:17:58.280Z,100.00
2023-05-04T20:21:00.812Z,100.00
2023-05-04T20:24:04.125Z,100.00
